This is the latest recevied weather packets stored in our database for station/object VA7NIC-10. If no packets are shown the sender has not sent any weather packets the latest 10 day(s).
| Time | Temp. | Humidity | Pressure | Rain* | Wind** | Luminosity | Snow |
|---|---|---|---|---|---|---|---|
| 1778017021 | 20.56° C | 63% | 1013.1 hPa | 0 mm | - | - | - |
| 1778016121 | 20.56° C | 60% | 1013.1 hPa | 0 mm | - | - | - |
| 1778015221 | 21.11° C | 58% | 1013.3 hPa | 0 mm | - | - | - |
| 1778014321 | 21.11° C | 61% | 1013.3 hPa | 0 mm | - | - | - |
| 1778013421 | 21.11° C | 60% | 1013.5 hPa | 0 mm | - | - | - |
| 1778012521 | 19.44° C | 66% | 1013.5 hPa | 0 mm | - | - | - |
| 1778011622 | 18.89° C | 68% | 1013.6 hPa | 0 mm | - | - | - |
| 1778010722 | 18.89° C | 68% | 1013.7 hPa | 0 mm | - | - | - |
| 1778009822 | 18.89° C | 70% | 1013.8 hPa | 0 mm | - | - | - |
| 1778008922 | 18.33° C | 71% | 1013.8 hPa | 0 mm | - | - | - |
| 1778008022 | 17.78° C | 72% | 1013.9 hPa | 0 mm | - | - | - |
| 1778007122 | 17.78° C | 73% | 1014 hPa | 0 mm | - | - | - |
| 1778006222 | 16.67° C | 76% | 1014.1 hPa | 0 mm | - | - | - |
| 1778005322 | 16.11° C | 78% | 1014 hPa | 0 mm | - | - | - |
| 1778004421 | 15° C | 81% | 1014 hPa | 0 mm | - | - | - |
| 1778003521 | 14.44° C | 82% | 1014.2 hPa | 0 mm | - | - | - |
| 1778002621 | 13.89° C | 84% | 1014.2 hPa | 0 mm | - | - | - |
| 1778001721 | 13.33° C | 85% | 1014.2 hPa | 0 mm | - | - | - |
| 1778000821 | 12.78° C | 86% | 1014.2 hPa | 0 mm | - | - | - |
| 1777999921 | 12.78° C | 86% | 1014.2 hPa | 0 mm | - | - | - |
| 1777999021 | 12.22° C | 86% | 1014.2 hPa | 0 mm | - | - | - |
| 1777998122 | 12.22° C | 86% | 1014.1 hPa | 0 mm | - | - | - |
| 1777997222 | 12.22° C | 87% | 1014 hPa | 0 mm | - | - | - |
| 1777996322 | 12.22° C | 87% | 1014 hPa | 0 mm | - | - | - |
| 1777995422 | 12.22° C | 87% | 1013.8 hPa | 0 mm | - | - | - |
* Rain latest hour (hover to see other rain measurements)
** Current wind speed in m/s (hover to see current wind gust speed)